createdAt,value
2019-02-22T00:01:25.624Z,97438.30
2019-02-22T00:03:55.243Z,97440.96
2019-02-22T00:06:24.875Z,97432.10
2019-02-22T00:08:54.467Z,97429.09
2019-02-22T00:11:24.062Z,97425.43
2019-02-22T00:13:53.681Z,97415.91
2019-02-22T00:16:23.290Z,97417.58
2019-02-22T00:18:52.892Z,97423.59
2019-02-22T00:21:22.827Z,97412.08
2019-02-22T00:23:52.420Z,97412.84
2019-02-22T00:26:22.039Z,97411.52
2019-02-22T00:28:51.641Z,97413.98
2019-02-22T00:31:21.236Z,97420.03
2019-02-22T00:33:50.856Z,97417.53
2019-02-22T00:36:20.534Z,97410.80
2019-02-22T00:38:50.147Z,97409.34
2019-02-22T00:41:19.742Z,97417.94
2019-02-22T00:43:49.367Z,97419.85
2019-02-22T00:46:18.985Z,97419.30
2019-02-22T00:48:48.588Z,97415.53
2019-02-22T00:51:18.539Z,97417.27
2019-02-22T00:53:48.160Z,97400.77
2019-02-22T00:56:17.759Z,97395.80
2019-02-22T00:58:47.374Z,97406.52
2019-02-22T01:01:16.971Z,97399.82
2019-02-22T01:03:46.598Z,97400.36
2019-02-22T01:06:16.188Z,97399.57
2019-02-22T01:08:46.501Z,97403.21
2019-02-22T01:11:16.130Z,97388.89
2019-02-22T01:13:45.747Z,97384.27
2019-02-22T01:16:15.341Z,97379.56
2019-02-22T01:18:44.967Z,97380.73
2019-02-22T01:21:14.556Z,97374.55
2019-02-22T01:23:44.147Z,97373.77
2019-02-22T01:26:13.765Z,97371.13
2019-02-22T01:28:44.140Z,97366.22
2019-02-22T01:31:13.751Z,97365.36
2019-02-22T01:33:43.357Z,97367.06
2019-02-22T01:36:13.446Z,97369.18
2019-02-22T01:38:43.058Z,97367.42
2019-02-22T01:41:12.723Z,97360.33
2019-02-22T01:43:42.343Z,97363.47
2019-02-22T01:46:12.010Z,97363.53
2019-02-22T01:48:41.625Z,97348.45
2019-02-22T01:51:11.248Z,97351.83
2019-02-22T01:53:40.857Z,97345.41
2019-02-22T01:56:10.864Z,97332.20
2019-02-22T01:58:48.328Z,97344.16
2019-02-22T02:01:11.799Z,97341.03
2019-02-22T02:03:41.484Z,97336.07
2019-02-22T02:06:11.101Z,97334.66
2019-02-22T02:08:40.718Z,97338.00
2019-02-22T02:11:10.379Z,97340.38
2019-02-22T02:13:39.995Z,97339.80
2019-02-22T02:16:09.591Z,97325.11
2019-02-22T02:18:39.219Z,97333.14
2019-02-22T02:21:08.835Z,97338.34
2019-02-22T02:23:38.448Z,97336.07
2019-02-22T02:26:08.065Z,97340.83
2019-02-22T02:28:37.725Z,97346.72
2019-02-22T02:31:07.350Z,97342.96
2019-02-22T02:33:36.953Z,97347.22
2019-02-22T02:36:06.584Z,97349.03
2019-02-22T02:38:36.196Z,97343.02
2019-02-22T02:41:10.909Z,97336.34
2019-02-22T02:43:37.210Z,97334.94
2019-02-22T02:46:06.796Z,97323.94
2019-02-22T02:48:36.415Z,97326.96
2019-02-22T02:51:06.013Z,97303.61
2019-02-22T02:53:35.639Z,97321.02
2019-02-22T02:56:05.252Z,97295.31
2019-02-22T02:58:34.883Z,97291.03
2019-02-22T03:01:04.589Z,97297.92
2019-02-22T03:03:34.175Z,97289.46
2019-02-22T03:06:05.556Z,97278.05
2019-02-22T03:08:35.449Z,97273.47
2019-02-22T03:11:05.112Z,97275.62
2019-02-22T03:13:34.739Z,97269.07
2019-02-22T03:16:04.397Z,97254.33
2019-02-22T03:18:34.018Z,97257.14
2019-02-22T03:21:05.485Z,97256.23
2019-02-22T03:23:35.115Z,97251.43
2019-02-22T03:26:04.724Z,97245.53
2019-02-22T03:28:34.349Z,97254.63
2019-02-22T03:31:04.219Z,97254.47
2019-02-22T03:33:33.817Z,97258.45
2019-02-22T03:36:03.436Z,97244.59
2019-02-22T03:38:33.033Z,97257.52
2019-02-22T03:41:02.645Z,97257.59
2019-02-22T03:43:32.270Z,97259.40
2019-02-22T03:46:01.860Z,97261.99
2019-02-22T03:48:31.480Z,97264.04
2019-02-22T03:51:01.102Z,97257.59
2019-02-22T03:53:32.530Z,97253.41
2019-02-22T03:56:03.049Z,97239.25
2019-02-22T03:58:32.738Z,97246.53
2019-02-22T04:01:02.498Z,97244.76
2019-02-22T04:03:32.260Z,97233.83
2019-02-22T04:06:01.850Z,97242.41
2019-02-22T04:08:31.463Z,97241.63
2019-02-22T04:11:01.080Z,97246.23
2019-02-22T04:13:30.701Z,97225.27
2019-02-22T04:16:00.294Z,97218.04
2019-02-22T04:18:29.900Z,97212.16
2019-02-22T04:20:59.931Z,97218.22
2019-02-22T04:23:29.618Z,97202.27
2019-02-22T04:25:59.226Z,97199.69
2019-02-22T04:28:28.845Z,97196.06
2019-02-22T04:30:58.469Z,97199.09
2019-02-22T04:33:28.066Z,97192.09
2019-02-22T04:35:57.685Z,97200.21
2019-02-22T04:38:27.517Z,97200.84
2019-02-22T04:40:57.142Z,97201.82
2019-02-22T04:43:27.041Z,97203.33
2019-02-22T04:45:56.660Z,97205.70
2019-02-22T04:48:26.260Z,97200.17
2019-02-22T04:50:58.223Z,97207.20
2019-02-22T04:53:28.133Z,97207.41
2019-02-22T04:55:57.755Z,97204.22
2019-02-22T04:58:28.207Z,97215.73
2019-02-22T05:00:57.803Z,97215.22
2019-02-22T05:03:27.398Z,97208.54
2019-02-22T05:05:57.022Z,97223.67
2019-02-22T05:08:26.617Z,97221.20
2019-02-22T05:10:56.239Z,97229.88
2019-02-22T05:13:25.836Z,97227.35
2019-02-22T05:15:55.451Z,97250.39
2019-02-22T05:18:25.076Z,97253.17
2019-02-22T05:20:54.702Z,97252.16
2019-02-22T05:23:24.297Z,97247.14
2019-02-22T05:25:54.202Z,97244.30
2019-02-22T05:28:23.827Z,97241.17
2019-02-22T05:30:53.435Z,97260.54
2019-02-22T05:33:23.138Z,97279.75
2019-02-22T05:35:52.744Z,97292.91
2019-02-22T05:38:23.093Z,97305.88
2019-02-22T05:40:52.718Z,97303.05
2019-02-22T05:43:22.310Z,97300.05
2019-02-22T05:45:52.832Z,97313.88
2019-02-22T05:48:25.346Z,97324.22
2019-02-22T05:50:54.093Z,97326.72
2019-02-22T05:53:23.712Z,97326.73
2019-02-22T05:55:53.332Z,97330.56
2019-02-22T05:58:22.934Z,97331.06
2019-02-22T06:00:52.537Z,97338.38
2019-02-22T06:03:22.151Z,97339.22
2019-02-22T06:05:51.745Z,97342.23
2019-02-22T06:08:21.343Z,97345.04
2019-02-22T06:10:50.958Z,97342.70
2019-02-22T06:13:20.539Z,97338.55
2019-02-22T06:15:50.155Z,97346.03
2019-02-22T06:18:23.031Z,97333.23
2019-02-22T06:20:51.846Z,97347.05
2019-02-22T06:23:22.334Z,97350.02
2019-02-22T06:25:51.922Z,97354.33
2019-02-22T06:28:21.511Z,97357.02
2019-02-22T06:30:51.126Z,97367.51
2019-02-22T06:33:20.811Z,97361.81
2019-02-22T06:35:50.413Z,97364.97
2019-02-22T06:38:20.001Z,97364.33
2019-02-22T06:40:51.461Z,97362.61
2019-02-22T06:43:21.046Z,97365.28
2019-02-22T06:45:50.667Z,97360.55
2019-02-22T06:48:21.979Z,97360.16
2019-02-22T06:50:51.593Z,97362.63
2019-02-22T06:53:21.211Z,97364.64
2019-02-22T06:55:50.833Z,97363.25
2019-02-22T06:58:20.423Z,97359.31
2019-02-22T07:00:50.367Z,97357.51
2019-02-22T07:03:19.956Z,97367.50
2019-02-22T07:05:49.584Z,97364.58
2019-02-22T07:08:19.201Z,97361.88
2019-02-22T07:10:53.412Z,97362.41
2019-02-22T07:13:24.544Z,97354.64
2019-02-22T07:15:54.461Z,97351.37
2019-02-22T07:18:24.048Z,97348.55
2019-02-22T07:20:54.224Z,97350.68
2019-02-22T07:23:24.127Z,97349.20
2019-02-22T07:25:53.717Z,97355.16
2019-02-22T07:28:23.307Z,97359.18
2019-02-22T07:30:52.931Z,97351.16
2019-02-22T07:33:22.615Z,97345.33
2019-02-22T07:35:52.235Z,97345.84
2019-02-22T07:38:21.842Z,97349.05
2019-02-22T07:40:52.300Z,97365.76
2019-02-22T07:43:21.913Z,97376.18
2019-02-22T07:45:53.284Z,97376.56
2019-02-22T07:48:22.895Z,97393.13
2019-02-22T07:50:57.608Z,97397.69
2019-02-22T07:53:23.831Z,97399.04
2019-02-22T07:55:53.424Z,97407.06
2019-02-22T07:58:23.800Z,97413.23
2019-02-22T08:00:53.395Z,97414.31
2019-02-22T08:03:23.023Z,97411.63
2019-02-22T08:05:52.632Z,97399.61
2019-02-22T08:08:24.020Z,97398.60
2019-02-22T08:10:53.654Z,97393.63
2019-02-22T08:13:23.240Z,97393.09
2019-02-22T08:15:53.344Z,97388.43
2019-02-22T08:18:22.942Z,97382.20
2019-02-22T08:20:52.818Z,97385.51
2019-02-22T08:23:22.424Z,97390.38
2019-02-22T08:25:52.059Z,97401.08
2019-02-22T08:28:21.738Z,97404.94
2019-02-22T08:30:52.140Z,97416.14
2019-02-22T08:33:21.833Z,97430.33
2019-02-22T08:35:51.530Z,97442.17
2019-02-22T08:38:21.183Z,97449.66
2019-02-22T08:40:50.805Z,97445.98
2019-02-22T08:43:30.745Z,97449.47
2019-02-22T08:45:51.834Z,97453.58
2019-02-22T08:48:21.805Z,97439.30
2019-02-22T08:50:51.459Z,97438.41
2019-02-22T08:53:21.068Z,97428.57
2019-02-22T08:55:50.663Z,97437.30
2019-02-22T08:58:20.305Z,97432.34
2019-02-22T09:00:49.980Z,97430.50
2019-02-22T09:03:19.609Z,97440.72
2019-02-22T09:05:49.240Z,97435.34
2019-02-22T09:08:19.611Z,97444.88
2019-02-22T09:11:00.076Z,97436.90
2019-02-22T09:13:21.400Z,97424.23
2019-02-22T09:15:51.033Z,97433.23
2019-02-22T09:18:20.634Z,97426.99
2019-02-22T09:20:50.263Z,97430.56
2019-02-22T09:23:19.859Z,97428.61
2019-02-22T09:25:49.848Z,97435.98
2019-02-22T09:28:19.447Z,97445.57
2019-02-22T09:30:50.066Z,97446.09
2019-02-22T09:33:19.699Z,97449.27
2019-02-22T09:35:49.324Z,97459.10
2019-02-22T09:38:19.711Z,97456.80
2019-02-22T09:40:49.341Z,97467.58
2019-02-22T09:43:19.217Z,97457.27
2019-02-22T09:45:49.785Z,97455.20
2019-02-22T09:48:19.403Z,97467.49
2019-02-22T09:50:49.040Z,97472.76
2019-02-22T09:53:19.208Z,97475.05
2019-02-22T09:55:48.803Z,97473.09
2019-02-22T09:58:19.216Z,97489.20
2019-02-22T10:00:49.787Z,97490.07
2019-02-22T10:03:20.626Z,97488.95
2019-02-22T10:05:50.248Z,97486.50
2019-02-22T10:08:19.877Z,97496.29
2019-02-22T10:10:49.473Z,97488.91
2019-02-22T10:13:19.167Z,97493.80
2019-02-22T10:15:48.792Z,97488.40
2019-02-22T10:18:18.391Z,97492.59
2019-02-22T10:20:48.082Z,97499.30
2019-02-22T10:23:17.677Z,97495.73
2019-02-22T10:25:47.395Z,97493.87
2019-02-22T10:28:18.773Z,97514.47
2019-02-22T10:30:48.401Z,97505.81
2019-02-22T10:33:18.001Z,97499.58
2019-02-22T10:35:47.893Z,97505.62
2019-02-22T10:38:17.483Z,97505.70
2019-02-22T10:40:47.117Z,97498.51
2019-02-22T10:43:16.742Z,97496.39
2019-02-22T10:45:47.205Z,97498.98
2019-02-22T10:48:16.788Z,97491.05
2019-02-22T10:50:46.421Z,97495.61
2019-02-22T10:53:16.051Z,97488.56
2019-02-22T10:55:45.683Z,97491.89
2019-02-22T10:58:15.320Z,97484.05
2019-02-22T11:00:44.987Z,97475.47
2019-02-22T11:03:15.416Z,97475.61
2019-02-22T11:05:45.015Z,97476.38
2019-02-22T11:08:14.711Z,97472.16
2019-02-22T11:10:45.431Z,97461.70
2019-02-22T11:13:15.071Z,97468.24
2019-02-22T11:15:44.748Z,97460.01
2019-02-22T11:18:14.374Z,97465.33
2019-02-22T11:20:43.969Z,97454.40
2019-02-22T11:23:13.593Z,97461.48
2019-02-22T11:25:43.459Z,97451.37
2019-02-22T11:28:13.060Z,97451.79
2019-02-22T11:30:42.765Z,97467.33
2019-02-22T11:33:12.351Z,97464.97
2019-02-22T11:35:42.224Z,97452.59
2019-02-22T11:38:11.889Z,97452.30
2019-02-22T11:40:43.256Z,97455.48
2019-02-22T11:43:13.556Z,97453.73
2019-02-22T11:45:43.188Z,97449.63
2019-02-22T11:48:12.852Z,97445.02
2019-02-22T11:50:42.469Z,97453.73
2019-02-22T11:53:12.097Z,97465.80
2019-02-22T11:55:41.774Z,97458.27
2019-02-22T11:58:11.663Z,97464.13
2019-02-22T12:00:41.625Z,97478.06
2019-02-22T12:03:23.875Z,97460.55
2019-02-22T12:05:42.660Z,97459.73
2019-02-22T12:08:13.057Z,97455.13
2019-02-22T12:10:42.718Z,97456.98
2019-02-22T12:13:12.415Z,97454.02
2019-02-22T12:15:42.014Z,97467.87
2019-02-22T12:18:11.780Z,97463.63
2019-02-22T12:20:41.388Z,97469.44
2019-02-22T12:23:11.263Z,97470.72
2019-02-22T12:25:40.885Z,97472.05
2019-02-22T12:28:10.606Z,97474.19
2019-02-22T12:30:40.281Z,97472.30
2019-02-22T12:33:10.520Z,97465.66
2019-02-22T12:35:40.143Z,97467.71
2019-02-22T12:38:09.777Z,97469.59
2019-02-22T12:40:39.478Z,97470.42
2019-02-22T12:43:09.074Z,97474.14
2019-02-22T12:45:38.706Z,97475.63
2019-02-22T12:48:08.335Z,97481.44
2019-02-22T12:50:37.964Z,97477.56
2019-02-22T12:53:07.557Z,97484.05
2019-02-22T12:55:37.182Z,97498.41
2019-02-22T12:58:06.792Z,97500.84
2019-02-22T13:00:36.412Z,97505.74
2019-02-22T13:03:06.555Z,97506.81
2019-02-22T13:05:36.272Z,97522.86
2019-02-22T13:08:06.888Z,97518.77
2019-02-22T13:10:36.488Z,97522.05
2019-02-22T13:13:06.175Z,97520.43
2019-02-22T13:15:35.775Z,97520.20
2019-02-22T13:18:05.472Z,97524.64
2019-02-22T13:20:35.108Z,97518.64
2019-02-22T13:23:04.713Z,97525.16
2019-02-22T13:25:34.367Z,97523.25
2019-02-22T13:28:03.954Z,97534.22
2019-02-22T13:30:33.590Z,97544.84
2019-02-22T13:33:03.459Z,97539.97
2019-02-22T13:35:33.334Z,97536.93
2019-02-22T13:38:03.018Z,97535.58
2019-02-22T13:40:32.649Z,97538.41
2019-02-22T13:43:02.250Z,97554.86
2019-02-22T13:45:31.984Z,97552.41
2019-02-22T13:48:01.614Z,97535.20
2019-02-22T13:50:31.381Z,97539.14
2019-02-22T13:53:00.979Z,97546.16
2019-02-22T13:55:30.987Z,97551.25
2019-02-22T13:58:00.687Z,97549.36
2019-02-22T14:00:30.323Z,97560.87
2019-02-22T14:02:59.920Z,97563.69
2019-02-22T14:05:32.802Z,97573.88
2019-02-22T14:08:03.106Z,97576.03
2019-02-22T14:10:32.754Z,97578.59
2019-02-22T14:13:02.388Z,97573.34
2019-02-22T14:15:37.946Z,97576.70
2019-02-22T14:18:03.428Z,97578.82
2019-02-22T14:20:33.106Z,97573.03
2019-02-22T14:23:03.597Z,97578.85
2019-02-22T14:25:33.578Z,97590.33
2019-02-22T14:28:03.216Z,97588.17
2019-02-22T14:30:32.813Z,97579.23
2019-02-22T14:33:02.425Z,97582.32
2019-02-22T14:35:32.310Z,97576.47
2019-02-22T14:38:01.945Z,97580.51
2019-02-22T14:40:31.669Z,97589.47
2019-02-22T14:43:01.286Z,97581.77
2019-02-22T14:45:30.896Z,97590.48
2019-02-22T14:48:00.525Z,97595.13
2019-02-22T14:50:30.878Z,97603.86
2019-02-22T14:53:00.529Z,97615.57
2019-02-22T14:55:30.143Z,97617.75
2019-02-22T14:57:59.742Z,97620.15
2019-02-22T15:00:29.435Z,97624.36
2019-02-22T15:02:59.067Z,97633.70
2019-02-22T15:05:28.665Z,97638.34
2019-02-22T15:07:58.322Z,97638.87
2019-02-22T15:10:29.109Z,97636.88
2019-02-22T15:12:58.704Z,97639.56
2019-02-22T15:15:29.969Z,97655.20
2019-02-22T15:18:06.824Z,97648.95
2019-02-22T15:20:36.449Z,97671.96
2019-02-22T15:23:06.083Z,97669.20
2019-02-22T15:25:35.693Z,97672.86
2019-02-22T15:28:05.317Z,97674.27
2019-02-22T15:30:35.012Z,97690.13
2019-02-22T15:33:05.635Z,97690.27
2019-02-22T15:35:35.327Z,97683.25
2019-02-22T15:38:05.020Z,97688.60
2019-02-22T15:40:34.623Z,97692.94
2019-02-22T15:43:04.325Z,97704.81
2019-02-22T15:45:35.789Z,97701.64
2019-02-22T15:48:05.414Z,97713.00
2019-02-22T15:50:35.115Z,97722.37
2019-02-22T15:53:04.988Z,97728.38
2019-02-22T15:55:34.668Z,97733.36
2019-02-22T15:58:04.295Z,97738.89
2019-02-22T16:00:36.289Z,97739.38
2019-02-22T16:03:06.206Z,97749.60
2019-02-22T16:05:37.508Z,97747.58
2019-02-22T16:08:07.924Z,97753.89
2019-02-22T16:10:38.526Z,97757.36
2019-02-22T16:13:08.217Z,97758.70
2019-02-22T16:15:40.570Z,97774.68
2019-02-22T16:18:09.238Z,97770.67
2019-02-22T16:20:38.838Z,97781.53
2019-02-22T16:23:08.441Z,97778.98
2019-02-22T16:25:39.598Z,97785.91
2019-02-22T16:28:09.197Z,97775.25
2019-02-22T16:30:38.957Z,97768.83
2019-02-22T16:33:08.558Z,97781.72
2019-02-22T16:35:38.191Z,97780.39
2019-02-22T16:38:07.790Z,97786.78
2019-02-22T16:40:37.384Z,97785.97
2019-02-22T16:43:07.003Z,97786.61
2019-02-22T16:45:36.634Z,97788.16
2019-02-22T16:48:06.379Z,97791.62
2019-02-22T16:50:35.999Z,97790.42
2019-02-22T16:53:05.628Z,97792.43
2019-02-22T16:55:35.242Z,97794.73
2019-02-22T16:58:04.832Z,97789.73
2019-02-22T17:00:34.460Z,97799.22
2019-02-22T17:03:04.554Z,97804.88
2019-02-22T17:05:34.221Z,97798.06
2019-02-22T17:08:03.845Z,97803.27
2019-02-22T17:10:33.442Z,97813.61
2019-02-22T17:13:03.069Z,97810.75
2019-02-22T17:15:32.771Z,97818.88
2019-02-22T17:18:02.391Z,97814.64
2019-02-22T17:20:31.990Z,97810.55
2019-02-22T17:23:01.622Z,97824.27
2019-02-22T17:25:31.215Z,97821.95
2019-02-22T17:28:01.196Z,97830.18
2019-02-22T17:30:30.796Z,97833.11
2019-02-22T17:33:00.430Z,97847.39
2019-02-22T17:35:30.030Z,97852.27
2019-02-22T17:37:59.667Z,97860.45
2019-02-22T17:40:32.336Z,97866.13
2019-02-22T17:43:01.963Z,97866.36
2019-02-22T17:45:31.552Z,97877.41
2019-02-22T17:48:01.197Z,97883.92
2019-02-22T17:50:30.834Z,97889.53
2019-02-22T17:53:00.456Z,97892.53
2019-02-22T17:55:30.078Z,97897.55
2019-02-22T17:57:59.698Z,97901.31
2019-02-22T18:00:29.315Z,97916.50
2019-02-22T18:02:58.941Z,97919.75
2019-02-22T18:05:28.551Z,97927.36
2019-02-22T18:07:58.393Z,97933.20
2019-02-22T18:10:28.009Z,97935.24
2019-02-22T18:12:57.605Z,97933.32
2019-02-22T18:15:27.228Z,97940.58
2019-02-22T18:17:56.822Z,97935.45
2019-02-22T18:20:26.515Z,97948.27
2019-02-22T18:22:57.138Z,97953.14
2019-02-22T18:25:26.750Z,97956.64
2019-02-22T18:27:56.353Z,97954.52
2019-02-22T18:30:26.485Z,97954.49
2019-02-22T18:32:56.113Z,97951.03
2019-02-22T18:35:25.730Z,97957.09
2019-02-22T18:37:55.351Z,97965.43
2019-02-22T18:40:24.966Z,97970.61
2019-02-22T18:42:54.583Z,97978.54
2019-02-22T18:45:24.168Z,97975.69
2019-02-22T18:47:53.787Z,97977.14
2019-02-22T18:50:23.374Z,97983.36
2019-02-22T18:52:52.991Z,97987.86
2019-02-22T18:55:22.598Z,97986.81
2019-02-22T18:57:52.214Z,97994.28
2019-02-22T19:00:22.574Z,98004.87
2019-02-22T19:02:52.182Z,98001.34
2019-02-22T19:05:22.554Z,98003.10
2019-02-22T19:07:52.740Z,98016.48
2019-02-22T19:10:22.363Z,98022.09
2019-02-22T19:12:51.949Z,98023.45
2019-02-22T19:15:21.653Z,98030.19
2019-02-22T19:17:51.266Z,98043.02
2019-02-22T19:20:21.893Z,98047.85
2019-02-22T19:22:51.502Z,98046.25
2019-02-22T19:25:21.185Z,98053.81
2019-02-22T19:27:50.799Z,98067.66
2019-02-22T19:30:23.823Z,98073.33
2019-02-22T19:32:53.427Z,98079.67
2019-02-22T19:35:23.088Z,98084.56
2019-02-22T19:37:52.775Z,98093.28
2019-02-22T19:40:29.201Z,98114.27
2019-02-22T19:42:58.819Z,98122.62
2019-02-22T19:45:28.475Z,98119.59
2019-02-22T19:47:58.085Z,98115.03
2019-02-22T19:50:27.671Z,98120.48
2019-02-22T19:52:57.869Z,98135.85
2019-02-22T19:55:27.463Z,98134.45
2019-02-22T19:57:57.117Z,98140.99
2019-02-22T20:00:26.803Z,98141.95
2019-02-22T20:02:56.393Z,98155.09
2019-02-22T20:05:26.012Z,98158.14
2019-02-22T20:07:55.598Z,98167.32
2019-02-22T20:10:25.718Z,98169.89
2019-02-22T20:12:55.315Z,98179.52
2019-02-22T20:15:24.997Z,98186.28
2019-02-22T20:17:55.142Z,98185.44
2019-02-22T20:20:24.890Z,98190.90
2019-02-22T20:22:54.469Z,98189.84
2019-02-22T20:25:24.226Z,98199.89
2019-02-22T20:27:53.853Z,98208.61
2019-02-22T20:30:23.444Z,98213.17
2019-02-22T20:32:53.036Z,98207.42
2019-02-22T20:35:25.831Z,98229.44
2019-02-22T20:37:55.412Z,98221.71
2019-02-22T20:40:25.029Z,98228.64
2019-02-22T20:42:54.620Z,98245.50
2019-02-22T20:45:24.311Z,98242.50
2019-02-22T20:48:04.206Z,98249.80
2019-02-22T20:50:25.277Z,98244.98
2019-02-22T20:52:54.905Z,98251.86
2019-02-22T20:55:24.489Z,98253.23
2019-02-22T20:57:54.086Z,98247.81
2019-02-22T21:00:29.183Z,98265.73
2019-02-22T21:02:58.798Z,98273.86
2019-02-22T21:05:28.388Z,98276.75
2019-02-22T21:07:58.297Z,98269.30
2019-02-22T21:10:27.919Z,98273.04
2019-02-22T21:12:57.607Z,98293.34
2019-02-22T21:15:27.232Z,98275.76
2019-02-22T21:17:56.848Z,98275.25
2019-02-22T21:20:26.439Z,98282.50
2019-02-22T21:22:56.054Z,98281.03
2019-02-22T21:25:25.638Z,98294.31
2019-02-22T21:27:55.263Z,98291.68
2019-02-22T21:30:24.851Z,98299.18
2019-02-22T21:32:54.438Z,98300.37
2019-02-22T21:35:24.122Z,98323.87
2019-02-22T21:37:53.815Z,98317.84
2019-02-22T21:40:23.401Z,98319.08
2019-02-22T21:42:52.993Z,98324.72
2019-02-22T21:45:22.665Z,98326.05
2019-02-22T21:47:55.408Z,98327.84
2019-02-22T21:50:23.601Z,98325.89
2019-02-22T21:52:53.175Z,98329.89
2019-02-22T21:55:22.794Z,98345.06
2019-02-22T21:57:52.396Z,98342.70
2019-02-22T22:00:28.266Z,98349.80
2019-02-22T22:02:57.884Z,98336.56
2019-02-22T22:05:27.502Z,98344.14
2019-02-22T22:07:57.999Z,98351.84
2019-02-22T22:10:27.653Z,98354.64
2019-02-22T22:12:57.276Z,98368.83
2019-02-22T22:15:26.896Z,98362.91
2019-02-22T22:17:56.516Z,98366.97
2019-02-22T22:20:26.132Z,98375.69
2019-02-22T22:22:55.750Z,98379.19
2019-02-22T22:25:25.343Z,98374.56
2019-02-22T22:27:54.931Z,98383.01
2019-02-22T22:30:24.541Z,98393.05
2019-02-22T22:32:54.131Z,98393.87
2019-02-22T22:35:23.753Z,98389.89
2019-02-22T22:37:53.341Z,98395.09
2019-02-22T22:40:22.957Z,98394.70
2019-02-22T22:42:52.593Z,98398.39
2019-02-22T22:45:22.213Z,98405.30
2019-02-22T22:47:51.857Z,98405.43
2019-02-22T22:50:21.478Z,98407.25
2019-02-22T22:52:51.072Z,98420.12
2019-02-22T22:55:20.657Z,98422.45
2019-02-22T22:57:50.269Z,98423.14
2019-02-22T23:00:51.332Z,98431.09
2019-02-22T23:03:21.829Z,98434.02
2019-02-22T23:05:51.424Z,98435.20
2019-02-22T23:08:21.043Z,98433.88
2019-02-22T23:10:50.772Z,98430.52
2019-02-22T23:13:20.460Z,98433.66
2019-02-22T23:15:50.048Z,98442.20
2019-02-22T23:18:19.670Z,98439.43
2019-02-22T23:20:49.326Z,98438.78
2019-02-22T23:23:19.163Z,98445.11
2019-02-22T23:25:48.893Z,98461.11
2019-02-22T23:28:18.488Z,98463.65
2019-02-22T23:30:48.100Z,98468.73
2019-02-22T23:33:17.677Z,98477.23
2019-02-22T23:35:47.301Z,98477.90
2019-02-22T23:38:16.903Z,98492.11
2019-02-22T23:40:46.491Z,98498.56
2019-02-22T23:43:16.124Z,98492.09
2019-02-22T23:45:45.705Z,98492.55
2019-02-22T23:48:15.329Z,98502.17
2019-02-22T23:50:44.949Z,98499.54
2019-02-22T23:53:14.553Z,98498.73
2019-02-22T23:55:44.166Z,98498.39
2019-02-22T23:58:13.761Z,98510.33
